Time;durP1;ratioP1;P1;durP2;ratioP2;P2;SDS_P1;SDS_P2;PMS_P1;PMS_P2;Temp;Humidity;BMP_temperature;BMP_pressure;BME280_temperature;BME280_humidity;BME280_pressure;Samples;Min_cycle;Max_cycle;Signal;HPM_P1;HPM_P2
2023/05/05 00:01:50;;;;;;;7.55;5.80;;;;;;;;;;5048710;28;20016;-64
2023/05/05 00:04:16;;;;;;;6.28;5.00;;;;;;;;;;5035149;28;20043;-64
2023/05/05 00:06:41;;;;;;;7.38;5.75;;;;;;;;;;5037320;28;20025;-64
2023/05/05 00:09:07;;;;;;;11.05;5.85;;;;;;;;;;5042121;28;20036;-64
2023/05/05 00:11:32;;;;;;;7.07;5.15;;;;;;;;;;5050061;28;20900;-64
2023/05/05 00:13:57;;;;;;;5.53;4.78;;;;;;;;;;5039065;28;20026;-64
2023/05/05 00:16:22;;;;;;;7.32;4.93;;;;;;;;;;5049319;28;20028;-64
2023/05/05 00:18:48;;;;;;;16.38;5.88;;;;;;;;;;5040137;28;20979;-64
2023/05/05 00:21:14;;;;;;;7.25;5.63;;;;;;;;;;5047986;28;20020;-64
2023/05/05 00:23:39;;;;;;;8.73;4.90;;;;;;;;;;5047335;28;20120;-63
2023/05/05 00:26:05;;;;;;;6.53;5.25;;;;;;;;;;5045720;28;20036;-64
2023/05/05 00:28:30;;;;;;;7.40;5.78;;;;;;;;;;5046674;28;20921;-64
2023/05/05 00:30:55;;;;;;;8.15;5.82;;;;;;;;;;5048650;28;20030;-63
2023/05/05 00:33:21;;;;;;;7.35;5.63;;;;;;;;;;5060162;28;20024;-63
2023/05/05 00:35:46;;;;;;;11.50;5.07;;;;;;;;;;5047446;28;20020;-63
2023/05/05 00:38:11;;;;;;;7.80;6.32;;;;;;;;;;5048831;28;21009;-63
2023/05/05 00:40:37;;;;;;;10.68;7.30;;;;;;;;;;5046410;28;20078;-63
2023/05/05 00:43:02;;;;;;;7.75;5.93;;;;;;;;;;5047533;28;20844;-63
2023/05/05 00:45:27;;;;;;;7.15;5.68;;;;;;;;;;5047505;28;20028;-63
2023/05/05 00:47:53;;;;;;;8.15;6.38;;;;;;;;;;5037760;28;20763;-64
2023/05/05 00:50:22;;;;;;;8.68;5.78;;;;;;;;;;5043893;28;20876;-64
2023/05/05 00:52:48;;;;;;;8.32;6.07;;;;;;;;;;5042180;28;20036;-64
2023/05/05 00:55:13;;;;;;;10.45;6.28;;;;;;;;;;5046060;28;20052;-64
2023/05/05 00:57:38;;;;;;;8.75;5.85;;;;;;;;;;5040262;28;20125;-64
2023/05/05 01:00:04;;;;;;;6.55;5.35;;;;;;;;;;5045663;28;20024;-64
2023/05/05 01:02:30;;;;;;;9.98;6.63;;;;;;;;;;5047438;28;20031;-64
2023/05/05 01:04:55;;;;;;;9.48;6.70;;;;;;;;;;5045895;28;20032;-63
2023/05/05 01:07:29;;;;;;;9.35;6.88;;;;;;;;;;5047937;28;20096;-63
2023/05/05 01:10:13;;;;;;;9.55;6.57;;;;;;;;;;5046816;28;20032;-63
2023/05/05 01:12:50;;;;;;;11.10;6.87;;;;;;;;;;5054037;28;20102;-63
2023/05/05 01:15:25;;;;;;;7.72;6.53;;;;;;;;;;5046395;28;20028;-63
2023/05/05 01:18:05;;;;;;;8.90;6.10;;;;;;;;;;5046988;28;20029;-64
2023/05/05 01:20:35;;;;;;;7.82;6.45;;;;;;;;;;5047798;28;20077;-64
2023/05/05 01:23:04;;;;;;;9.90;6.15;;;;;;;;;;5047864;28;20038;-64
2023/05/05 01:25:30;;;;;;;10.40;6.75;;;;;;;;;;5046984;28;20020;-64
2023/05/05 01:28:14;;;;;;;8.32;7.25;;;;;;;;;;5046260;28;20955;-64
2023/05/05 01:30:58;;;;;;;12.57;8.15;;;;;;;;;;5043113;28;20098;-64
2023/05/05 01:33:26;;;;;;;8.30;7.40;;;;;;;;;;5051564;28;20032;-63
2023/05/05 01:35:54;;;;;;;10.98;8.63;;;;;;;;;;5057712;28;20028;-63
2023/05/05 01:38:25;;;;;;;11.60;8.98;;;;;;;;;;5050405;28;20264;-63
2023/05/05 01:41:06;;;;;;;9.23;7.78;;;;;;;;;;5054166;28;20028;-64
2023/05/05 01:43:33;;;;;;;12.32;8.30;;;;;;;;;;5058996;28;20032;-64
2023/05/05 01:46:00;;;;;;;10.98;8.27;;;;;;;;;;5048834;28;20032;-63
2023/05/05 01:48:26;;;;;;;10.85;9.50;;;;;;;;;;5049456;28;20027;-63
2023/05/05 01:50:52;;;;;;;13.88;9.68;;;;;;;;;;5054850;28;20024;-63
2023/05/05 01:53:18;;;;;;;12.85;9.68;;;;;;;;;;5062360;28;20043;-63
2023/05/05 01:55:45;;;;;;;11.70;9.40;;;;;;;;;;5054600;28;20020;-63
2023/05/05 01:58:11;;;;;;;13.38;10.90;;;;;;;;;;5054626;28;20565;-63
2023/05/05 02:00:37;;;;;;;12.18;9.60;;;;;;;;;;5051739;28;20073;-63
2023/05/05 02:03:03;;;;;;;13.40;9.77;;;;;;;;;;5058981;28;20040;-64
2023/05/05 02:05:29;;;;;;;11.80;8.98;;;;;;;;;;5053259;28;20016;-64
2023/05/05 02:07:56;;;;;;;14.50;10.38;;;;;;;;;;5055226;28;20032;-63
2023/05/05 02:10:22;;;;;;;10.73;9.20;;;;;;;;;;5054528;28;20066;-63
2023/05/05 02:12:48;;;;;;;13.13;10.35;;;;;;;;;;5053519;28;20085;-64
2023/05/05 02:15:14;;;;;;;10.98;9.80;;;;;;;;;;5053750;28;20847;-63
2023/05/05 02:17:41;;;;;;;11.95;10.70;;;;;;;;;;5052129;28;20033;-63
2023/05/05 02:20:08;;;;;;;12.13;10.32;;;;;;;;;;5036450;28;20135;-63
2023/05/05 02:22:33;;;;;;;13.75;10.13;;;;;;;;;;5051949;28;20047;-63
2023/05/05 02:24:58;;;;;;;9.90;8.90;;;;;;;;;;5053437;28;20028;-63
2023/05/05 02:27:24;;;;;;;13.43;10.35;;;;;;;;;;5054586;28;20112;-63
2023/05/05 02:29:51;;;;;;;14.00;9.70;;;;;;;;;;5048521;28;20034;-63
2023/05/05 02:32:30;;;;;;;14.63;10.23;;;;;;;;;;5049797;28;20897;-63
2023/05/05 02:34:57;;;;;;;14.77;10.52;;;;;;;;;;5045681;28;20090;-63
2023/05/05 02:37:23;;;;;;;15.48;10.27;;;;;;;;;;5050531;28;20024;-63
2023/05/05 02:40:07;;;;;;;14.30;9.00;;;;;;;;;;5054409;28;20028;-63
2023/05/05 02:42:35;;;;;;;11.48;9.95;;;;;;;;;;5046191;28;21211;-63
2023/05/05 02:45:03;;;;;;;14.95;9.82;;;;;;;;;;5054962;28;20030;-63
2023/05/05 02:47:35;;;;;;;12.05;9.95;;;;;;;;;;5036004;28;20082;-63
2023/05/05 02:50:01;;;;;;;12.50;11.00;;;;;;;;;;5052144;28;20020;-63
2023/05/05 02:52:26;;;;;;;13.35;10.15;;;;;;;;;;5043929;28;20028;-63
2023/05/05 02:54:51;;;;;;;11.40;9.35;;;;;;;;;;5054118;28;20874;-62
2023/05/05 02:57:18;;;;;;;13.30;9.38;;;;;;;;;;5045561;28;20036;-63
2023/05/05 02:59:49;;;;;;;16.05;9.25;;;;;;;;;;5051673;28;20027;-63
2023/05/05 03:02:17;;;;;;;9.98;8.98;;;;;;;;;;5054155;28;20031;-63
2023/05/05 03:04:46;;;;;;;13.68;10.05;;;;;;;;;;5054831;28;20020;-63
2023/05/05 03:07:13;;;;;;;10.85;9.23;;;;;;;;;;5057005;28;20109;-63
2023/05/05 03:09:54;;;;;;;11.20;9.88;;;;;;;;;;5053608;28;20023;-63
2023/05/05 03:12:21;;;;;;;14.52;10.25;;;;;;;;;;5059465;28;20032;-63
2023/05/05 03:14:47;;;;;;;12.70;10.80;;;;;;;;;;5042763;28;20197;-63
2023/05/05 03:17:13;;;;;;;16.08;10.55;;;;;;;;;;5052268;28;20864;-63
2023/05/05 03:19:42;;;;;;;12.55;10.50;;;;;;;;;;5055612;28;20118;-63
2023/05/05 03:22:07;;;;;;;13.73;9.85;;;;;;;;;;5055691;28;20077;-63
2023/05/05 03:24:33;;;;;;;18.05;11.00;;;;;;;;;;5056796;28;20786;-63
2023/05/05 03:26:58;;;;;;;12.65;10.25;;;;;;;;;;5054070;28;20404;-63
2023/05/05 03:29:24;;;;;;;13.02;11.18;;;;;;;;;;5056350;28;20144;-63
2023/05/05 03:31:49;;;;;;;13.23;10.45;;;;;;;;;;5054130;28;20473;-63
2023/05/05 03:34:14;;;;;;;16.35;10.93;;;;;;;;;;5053879;28;20054;-63
2023/05/05 03:36:40;;;;;;;13.60;10.95;;;;;;;;;;5054710;28;20052;-63
2023/05/05 03:39:05;;;;;;;14.73;11.30;;;;;;;;;;5051514;28;20020;-63
2023/05/05 03:41:30;;;;;;;16.52;12.85;;;;;;;;;;5050444;28;20118;-63
2023/05/05 03:43:56;;;;;;;16.05;12.25;;;;;;;;;;5028763;28;20036;-62
2023/05/05 03:46:21;;;;;;;14.38;12.13;;;;;;;;;;5054292;28;20023;-62
2023/05/05 03:48:47;;;;;;;14.85;12.80;;;;;;;;;;5055143;28;20852;-62
2023/05/05 03:51:12;;;;;;;17.55;12.75;;;;;;;;;;5055392;28;20085;-63
2023/05/05 03:53:38;;;;;;;14.10;11.20;;;;;;;;;;5054334;28;20024;-63
2023/05/05 03:56:03;;;;;;;17.23;11.55;;;;;;;;;;5061935;28;20466;-63
2023/05/05 03:58:28;;;;;;;18.75;13.85;;;;;;;;;;5053284;28;20024;-63
2023/05/05 04:00:54;;;;;;;14.13;11.90;;;;;;;;;;5046742;28;20036;-63
2023/05/05 04:03:19;;;;;;;16.88;12.75;;;;;;;;;;5058729;28;20181;-63
2023/05/05 04:05:44;;;;;;;15.40;12.65;;;;;;;;;;5036129;28;20902;-63
2023/05/05 04:08:09;;;;;;;16.17;13.07;;;;;;;;;;5047931;28;20082;-63
2023/05/05 04:10:35;;;;;;;16.23;13.15;;;;;;;;;;5048901;28;20135;-63
2023/05/05 04:13:00;;;;;;;15.75;12.40;;;;;;;;;;5045601;28;20871;-63
2023/05/05 04:15:25;;;;;;;15.50;13.43;;;;;;;;;;5048645;28;20931;-63
2023/05/05 04:17:51;;;;;;;21.45;13.50;;;;;;;;;;5036802;28;20341;-63
2023/05/05 04:20:16;;;;;;;22.27;16.48;;;;;;;;;;5047524;28;20059;-63
2023/05/05 04:22:41;;;;;;;16.60;13.55;;;;;;;;;;5037762;28;20012;-63
2023/05/05 04:25:07;;;;;;;15.75;14.15;;;;;;;;;;5048983;28;20024;-62
2023/05/05 04:27:32;;;;;;;14.32;12.40;;;;;;;;;;5046948;28;20939;-62
2023/05/05 04:29:57;;;;;;;19.52;15.88;;;;;;;;;;5040031;28;20147;-62
2023/05/05 04:32:22;;;;;;;20.48;16.17;;;;;;;;;;5045147;28;20024;-63
2023/05/05 04:34:48;;;;;;;19.15;16.23;;;;;;;;;;5047729;28;20032;-62
2023/05/05 04:37:13;;;;;;;17.67;15.80;;;;;;;;;;5050173;28;20022;-62
2023/05/05 04:39:38;;;;;;;18.17;16.13;;;;;;;;;;5048194;28;20937;-62
2023/05/05 04:42:04;;;;;;;19.25;14.93;;;;;;;;;;5051784;28;20035;-63
2023/05/05 04:44:29;;;;;;;20.70;16.23;;;;;;;;;;5043882;28;20077;-63
2023/05/05 04:46:54;;;;;;;24.00;17.33;;;;;;;;;;5047613;28;20876;-63
2023/05/05 04:49:20;;;;;;;20.00;17.38;;;;;;;;;;5048722;28;20028;-63
2023/05/05 04:51:45;;;;;;;19.92;15.05;;;;;;;;;;5036570;28;20486;-63
2023/05/05 04:54:10;;;;;;;18.95;15.18;;;;;;;;;;5055983;28;20012;-63
2023/05/05 04:56:36;;;;;;;18.55;16.58;;;;;;;;;;5049919;28;20090;-62
2023/05/05 04:59:01;;;;;;;17.33;15.38;;;;;;;;;;5044092;28;20012;-63
2023/05/05 05:01:26;;;;;;;19.10;15.73;;;;;;;;;;5048774;28;20123;-63
2023/05/05 05:03:52;;;;;;;18.25;16.35;;;;;;;;;;5042760;28;20133;-63
2023/05/05 05:06:17;;;;;;;18.63;16.10;;;;;;;;;;5047396;28;20276;-63
2023/05/05 05:08:42;;;;;;;20.40;17.25;;;;;;;;;;5047821;28;20900;-63
2023/05/05 05:11:08;;;;;;;23.38;18.23;;;;;;;;;;5045934;28;20901;-62
2023/05/05 05:13:33;;;;;;;24.63;19.35;;;;;;;;;;5046842;28;20052;-63
2023/05/05 05:15:59;;;;;;;24.50;18.23;;;;;;;;;;5056236;28;20024;-63
2023/05/05 05:18:24;;;;;;;18.30;15.73;;;;;;;;;;5050824;28;20076;-63
2023/05/05 05:20:50;;;;;;;21.95;17.88;;;;;;;;;;5051018;28;20983;-63
2023/05/05 05:23:15;;;;;;;21.05;16.75;;;;;;;;;;5041445;28;20055;-63
2023/05/05 05:25:41;;;;;;;22.52;16.88;;;;;;;;;;5051188;28;20016;-63
2023/05/05 05:28:06;;;;;;;22.42;19.63;;;;;;;;;;5049784;28;20080;-63
2023/05/05 05:30:31;;;;;;;24.13;18.75;;;;;;;;;;5038986;28;20134;-63
2023/05/05 05:32:57;;;;;;;22.15;18.50;;;;;;;;;;5048710;28;20091;-63
2023/05/05 05:35:22;;;;;;;21.90;19.40;;;;;;;;;;5049703;28;20818;-63
2023/05/05 05:37:48;;;;;;;21.23;18.95;;;;;;;;;;5047184;28;20273;-63
2023/05/05 05:40:14;;;;;;;24.55;21.40;;;;;;;;;;5044173;28;20031;-62
2023/05/05 05:42:40;;;;;;;31.33;22.08;;;;;;;;;;5046478;28;20806;-63
2023/05/05 05:45:06;;;;;;;25.80;21.98;;;;;;;;;;5048333;28;20182;-62
2023/05/05 05:47:31;;;;;;;23.80;20.00;;;;;;;;;;5047294;28;20802;-62
2023/05/05 05:49:56;;;;;;;24.63;20.73;;;;;;;;;;5050484;28;20025;-62
2023/05/05 05:52:21;;;;;;;22.52;20.13;;;;;;;;;;5038900;28;20013;-63
2023/05/05 05:54:47;;;;;;;22.98;20.55;;;;;;;;;;5050983;28;20871;-62
2023/05/05 05:57:12;;;;;;;28.15;20.55;;;;;;;;;;5085974;28;20024;-62
2023/05/05 05:59:37;;;;;;;20.63;18.30;;;;;;;;;;5079744;28;20482;-62
2023/05/05 06:02:03;;;;;;;24.02;20.67;;;;;;;;;;5079821;28;20293;-62
2023/05/05 06:04:29;;;;;;;51.13;23.38;;;;;;;;;;5063586;28;20036;-61
2023/05/05 06:06:55;;;;;;;54.05;22.10;;;;;;;;;;5078301;28;20028;-61
2023/05/05 06:09:20;;;;;;;30.02;18.77;;;;;;;;;;5072353;28;20029;-62
2023/05/05 06:11:47;;;;;;;28.50;19.65;;;;;;;;;;5061978;28;20012;-63
2023/05/05 06:14:12;;;;;;;19.95;17.67;;;;;;;;;;5070226;28;20036;-62
2023/05/05 06:16:37;;;;;;;21.45;18.08;;;;;;;;;;5092464;28;20035;-62
2023/05/05 06:19:08;;;;;;;26.30;19.08;;;;;;;;;;5089671;28;20020;-62
2023/05/05 06:21:33;;;;;;;18.77;16.40;;;;;;;;;;5092250;28;20020;-62
2023/05/05 06:23:58;;;;;;;21.85;16.00;;;;;;;;;;5066573;28;20808;-62
2023/05/05 06:26:24;;;;;;;22.13;17.02;;;;;;;;;;5068815;28;20081;-62
2023/05/05 06:28:50;;;;;;;20.25;16.38;;;;;;;;;;5027471;28;20389;-62
2023/05/05 06:31:15;;;;;;;20.93;15.40;;;;;;;;;;5047901;28;20027;-62
2023/05/05 06:33:40;;;;;;;24.58;15.52;;;;;;;;;;5048695;28;21101;-62
2023/05/05 06:36:05;;;;;;;19.20;13.43;;;;;;;;;;5045647;28;20089;-62
2023/05/05 06:38:31;;;;;;;17.55;15.07;;;;;;;;;;5093019;28;20032;-62
2023/05/05 06:40:57;;;;;;;18.85;13.77;;;;;;;;;;5092349;28;20028;-62
2023/05/05 06:43:22;;;;;;;18.15;14.13;;;;;;;;;;5092762;28;20032;-62
2023/05/05 06:45:48;;;;;;;19.20;13.40;;;;;;;;;;5092141;28;20020;-62
2023/05/05 06:48:13;;;;;;;14.25;11.13;;;;;;;;;;5092747;28;20062;-62
2023/05/05 06:50:38;;;;;;;14.55;12.63;;;;;;;;;;5093057;28;20027;-62
2023/05/05 06:53:03;;;;;;;17.50;12.30;;;;;;;;;;5089357;28;20471;-63
2023/05/05 06:55:29;;;;;;;13.77;9.98;;;;;;;;;;5082625;28;20274;-62
2023/05/05 06:57:54;;;;;;;16.65;10.05;;;;;;;;;;5092680;28;20028;-62
2023/05/05 07:00:21;;;;;;;17.63;9.10;;;;;;;;;;5092651;28;20476;-62
2023/05/05 07:02:46;;;;;;;13.82;8.95;;;;;;;;;;5091491;28;20050;-62
2023/05/05 07:05:11;;;;;;;13.73;9.70;;;;;;;;;;5092096;28;20459;-62
2023/05/05 07:07:37;;;;;;;13.68;8.90;;;;;;;;;;5091863;28;20063;-62
2023/05/05 07:10:03;;;;;;;8.40;6.82;;;;;;;;;;5092903;28;20053;-62
2023/05/05 07:12:29;;;;;;;10.25;7.53;;;;;;;;;;5092428;28;20024;-62
2023/05/05 07:14:55;;;;;;;9.13;6.75;;;;;;;;;;5092092;28;20034;-62
2023/05/05 07:17:20;;;;;;;7.10;5.75;;;;;;;;;;5092122;28;20095;-62
2023/05/05 07:19:47;;;;;;;8.60;7.00;;;;;;;;;;5092456;28;20082;-62
2023/05/05 07:22:12;;;;;;;11.75;6.80;;;;;;;;;;5092056;28;20024;-62
2023/05/05 07:24:37;;;;;;;8.65;5.53;;;;;;;;;;5091882;28;20439;-62
2023/05/05 07:27:03;;;;;;;8.65;5.57;;;;;;;;;;5091889;28;20043;-62
2023/05/05 07:29:28;;;;;;;6.50;4.95;;;;;;;;;;5091920;28;20035;-62
2023/05/05 07:31:53;;;;;;;9.82;4.90;;;;;;;;;;5091916;28;20035;-62
2023/05/05 07:34:18;;;;;;;9.27;5.07;;;;;;;;;;5091411;28;20027;-62
2023/05/05 07:36:44;;;;;;;7.95;4.75;;;;;;;;;;5091220;28;20506;-62
2023/05/05 07:39:09;;;;;;;6.88;4.65;;;;;;;;;;5092188;28;20035;-62
2023/05/05 07:41:34;;;;;;;17.75;5.90;;;;;;;;;;5091682;28;20036;-62
2023/05/05 07:44:00;;;;;;;7.80;5.57;;;;;;;;;;5092186;28;20486;-62
2023/05/05 07:46:25;;;;;;;6.53;5.13;;;;;;;;;;5091684;28;20047;-62
2023/05/05 07:48:50;;;;;;;7.57;5.73;;;;;;;;;;5091980;28;20031;-62
2023/05/05 07:51:16;;;;;;;9.93;6.30;;;;;;;;;;5091365;28;20296;-62
2023/05/05 07:53:41;;;;;;;11.57;5.90;;;;;;;;;;5091468;28;20482;-61
2023/05/05 07:56:07;;;;;;;7.22;4.53;;;;;;;;;;5077899;28;20020;-62
2023/05/05 07:58:32;;;;;;;8.38;3.67;;;;;;;;;;5091694;28;20093;-62
2023/05/05 08:00:59;;;;;;;7.35;3.95;;;;;;;;;;5091168;28;20533;-61
2023/05/05 08:03:25;;;;;;;6.97;3.65;;;;;;;;;;5091707;28;20050;-61
2023/05/05 08:05:52;;;;;;;9.55;3.63;;;;;;;;;;5091621;28;20051;-62
2023/05/05 08:08:17;;;;;;;9.27;3.55;;;;;;;;;;5091734;28;20497;-62
2023/05/05 08:10:42;;;;;;;8.80;3.97;;;;;;;;;;5089181;28;20024;-62
2023/05/05 08:13:07;;;;;;;4.97;2.37;;;;;;;;;;5091593;28;20629;-62
2023/05/05 08:15:33;;;;;;;5.73;3.03;;;;;;;;;;5091244;28;20274;-62
2023/05/05 08:17:58;;;;;;;10.80;4.03;;;;;;;;;;5091062;28;20272;-62
2023/05/05 08:20:26;;;;;;;7.13;3.97;;;;;;;;;;5072481;28;20316;-62
2023/05/05 08:22:51;;;;;;;14.73;5.85;;;;;;;;;;5079555;28;20070;-62
2023/05/05 08:25:16;;;;;;;8.37;4.60;;;;;;;;;;5081936;28;20012;-62
2023/05/05 08:27:42;;;;;;;13.80;5.40;;;;;;;;;;5091194;28;20339;-62
2023/05/05 08:30:07;;;;;;;8.18;4.40;;;;;;;;;;5078249;28;20467;-62
2023/05/05 08:32:33;;;;;;;7.63;4.32;;;;;;;;;;5079305;28;20085;-62
2023/05/05 08:35:00;;;;;;;13.05;4.85;;;;;;;;;;5089794;28;20586;-62
2023/05/05 08:37:25;;;;;;;8.85;4.50;;;;;;;;;;5090753;28;20024;-62
2023/05/05 08:39:50;;;;;;;6.57;4.40;;;;;;;;;;5085477;28;20505;-62
2023/05/05 08:42:15;;;;;;;5.75;3.58;;;;;;;;;;5083510;28;20274;-62
2023/05/05 08:44:41;;;;;;;8.73;4.87;;;;;;;;;;5091035;28;20027;-62
2023/05/05 08:47:09;;;;;;;6.00;3.85;;;;;;;;;;5091092;28;20756;-62
2023/05/05 08:49:39;;;;;;;9.95;4.40;;;;;;;;;;5092832;28;20028;-62
2023/05/05 08:52:06;;;;;;;6.80;4.28;;;;;;;;;;5095098;28;20031;-63
2023/05/05 08:54:33;;;;;;;6.65;4.47;;;;;;;;;;5094129;28;20132;-62
2023/05/05 08:57:00;;;;;;;7.30;5.03;;;;;;;;;;5094807;28;20028;-61
2023/05/05 08:59:28;;;;;;;9.73;4.72;;;;;;;;;;5094674;28;20028;-61
2023/05/05 09:01:55;;;;;;;8.18;4.80;;;;;;;;;;5094788;28;20550;-62
2023/05/05 09:04:20;;;;;;;7.22;4.53;;;;;;;;;;5094013;28;20414;-62
2023/05/05 09:06:45;;;;;;;9.25;5.00;;;;;;;;;;5094334;28;20024;-62
2023/05/05 09:09:11;;;;;;;9.93;4.72;;;;;;;;;;5094200;28;20035;-61
2023/05/05 09:11:36;;;;;;;6.65;4.03;;;;;;;;;;5065156;28;20197;-62
2023/05/05 09:14:02;;;;;;;8.55;3.75;;;;;;;;;;5049508;28;20063;-62
2023/05/05 09:16:27;;;;;;;6.88;3.08;;;;;;;;;;5050387;28;20024;-61
2023/05/05 09:19:02;;;;;;;14.88;3.15;;;;;;;;;;5067775;28;20392;-61
2023/05/05 09:21:28;;;;;;;6.00;3.38;;;;;;;;;;5093462;28;20465;-62
2023/05/05 09:24:05;;;;;;;10.07;3.55;;;;;;;;;;5094432;28;20026;-62
2023/05/05 09:26:34;;;;;;;9.38;4.15;;;;;;;;;;5092852;28;20043;-62
2023/05/05 09:29:03;;;;;;;12.68;4.93;;;;;;;;;;5093876;28;20462;-61
2023/05/05 09:31:29;;;;;;;11.38;4.80;;;;;;;;;;5075691;28;20374;-61
2023/05/05 09:33:59;;;;;;;10.65;4.85;;;;;;;;;;5085199;28;20059;-62
2023/05/05 09:37:00;;;;;;;5.95;4.22;;;;;;;;;;5091468;28;20020;-62
2023/05/05 09:39:25;;;;;;;9.75;4.40;;;;;;;;;;5011389;28;20034;-61
2023/05/05 09:41:50;;;;;;;12.85;4.03;;;;;;;;;;5076595;28;20498;-62
2023/05/05 09:44:16;;;;;;;9.18;4.60;;;;;;;;;;5094045;28;20027;-62
2023/05/05 09:46:51;;;;;;;7.68;4.35;;;;;;;;;;5093878;28;20482;-61
2023/05/05 09:49:17;;;;;;;7.88;5.60;;;;;;;;;;5093926;28;20032;-61
2023/05/05 09:51:45;;;;;;;9.90;5.55;;;;;;;;;;5093953;28;20030;-61
2023/05/05 09:54:23;;;;;;;12.50;6.13;;;;;;;;;;5071479;28;20024;-61
2023/05/05 09:56:49;;;;;;;10.93;6.13;;;;;;;;;;5048618;28;20020;-62
2023/05/05 09:59:14;;;;;;;11.55;7.15;;;;;;;;;;5067535;28;20376;-62
2023/05/05 10:01:42;;;;;;;9.63;7.57;;;;;;;;;;5090021;28;20036;-61
2023/05/05 10:04:07;;;;;;;15.50;7.55;;;;;;;;;;5091559;28;20422;-60
2023/05/05 10:06:40;;;;;;;15.88;6.95;;;;;;;;;;5092181;28;20020;-61
2023/05/05 10:09:05;;;;;;;8.32;6.68;;;;;;;;;;5092465;28;20028;-60
2023/05/05 10:11:30;;;;;;;9.38;6.60;;;;;;;;;;5090777;28;20028;-61
2023/05/05 10:13:56;;;;;;;8.63;6.53;;;;;;;;;;5083740;28;20052;-61
2023/05/05 10:16:23;;;;;;;7.93;5.72;;;;;;;;;;5089870;28;20032;-61
2023/05/05 10:18:48;;;;;;;9.60;6.82;;;;;;;;;;5091696;28;20025;-60
2023/05/05 10:21:15;;;;;;;8.60;5.72;;;;;;;;;;5091739;28;20034;-60
2023/05/05 10:23:48;;;;;;;7.10;5.50;;;;;;;;;;5092501;28;20026;-60
2023/05/05 10:26:14;;;;;;;12.02;7.45;;;;;;;;;;5091726;28;20024;-61
2023/05/05 10:28:48;;;;;;;12.38;6.40;;;;;;;;;;5079156;28;20382;-61
2023/05/05 10:31:23;;;;;;;10.13;6.50;;;;;;;;;;5091264;28;20039;-60
2023/05/05 10:33:48;;;;;;;;;;;;;;;;;;5092573;28;20032;-60
2023/05/05 10:36:13;;;;;;;15.13;5.85;;;;;;;;;;5091068;28;19950;-59
2023/05/05 10:38:40;;;;;;;11.40;6.07;;;;;;;;;;5088063;28;20024;-60
2023/05/05 10:41:05;;;;;;;14.32;4.72;;;;;;;;;;5085424;28;20386;-59
2023/05/05 10:43:31;;;;;;;9.43;5.05;;;;;;;;;;5088435;28;20043;-61
2023/05/05 10:45:56;;;;;;;9.00;5.40;;;;;;;;;;5091397;28;20463;-60
2023/05/05 10:48:28;;;;;;;12.18;5.43;;;;;;;;;;5091355;28;20027;-61
2023/05/05 10:50:57;;;;;;;9.15;5.60;;;;;;;;;;5092062;28;20020;-60
2023/05/05 10:53:31;;;;;;;10.95;4.93;;;;;;;;;;5091431;28;20023;-60
2023/05/05 10:56:15;;;;;;;6.28;4.38;;;;;;;;;;5092137;28;20075;-60
2023/05/05 10:58:40;;;;;;;12.50;4.72;;;;;;;;;;5083915;28;20057;-61
2023/05/05 11:01:06;;;;;;;7.13;5.00;;;;;;;;;;5091793;28;20459;-60
2023/05/05 11:03:31;;;;;;;11.35;4.63;;;;;;;;;;5092508;28;20016;-60
2023/05/05 11:06:03;;;;;;;11.35;5.47;;;;;;;;;;5091740;28;20049;-60
2023/05/05 11:08:29;;;;;;;8.85;4.97;;;;;;;;;;5092068;28;20390;-60
2023/05/05 11:10:54;;;;;;;8.77;5.63;;;;;;;;;;5091703;28;20057;-60
2023/05/05 11:13:20;;;;;;;10.32;5.78;;;;;;;;;;5092501;28;20028;-60
2023/05/05 11:15:45;;;;;;;10.05;5.75;;;;;;;;;;5092789;28;20481;-60
2023/05/05 11:18:34;;;;;;;12.80;6.55;;;;;;;;;;5092055;28;20085;-60
2023/05/05 11:20:59;;;;;;;9.15;6.30;;;;;;;;;;5090969;28;20035;-60
2023/05/05 11:23:25;;;;;;;17.50;7.95;;;;;;;;;;5091586;28;20360;-60
2023/05/05 11:25:51;;;;;;;9.90;6.43;;;;;;;;;;5092173;28;20055;-60
2023/05/05 11:28:17;;;;;;;11.57;6.55;;;;;;;;;;5090295;28;20032;-61
2023/05/05 11:30:58;;;;;;;9.05;6.63;;;;;;;;;;5091498;28;20020;-61
2023/05/05 11:33:30;;;;;;;7.65;5.95;;;;;;;;;;5091112;28;20470;-61
2023/05/05 11:35:55;;;;;;;12.90;6.10;;;;;;;;;;5092339;28;20020;-60
2023/05/05 11:38:43;;;;;;;11.00;7.07;;;;;;;;;;5091192;28;20046;-61
2023/05/05 11:41:09;;;;;;;8.05;5.30;;;;;;;;;;5078191;28;20283;-61
2023/05/05 11:43:34;;;;;;;8.05;4.50;;;;;;;;;;5091956;28;20122;-60
2023/05/05 11:46:19;;;;;;;8.63;4.60;;;;;;;;;;5091773;28;20020;-60
2023/05/05 11:48:45;;;;;;;7.03;4.35;;;;;;;;;;5090117;28;20052;-61
2023/05/05 11:51:12;;;;;;;8.70;4.30;;;;;;;;;;5091421;28;20016;-60
2023/05/05 11:53:47;;;;;;;6.05;4.25;;;;;;;;;;5091301;28;20378;-61
2023/05/05 11:56:22;;;;;;;6.90;3.95;;;;;;;;;;5082795;28;20103;-61
2023/05/05 11:58:48;;;;;;;7.03;3.90;;;;;;;;;;5085168;28;20044;-60
2023/05/05 12:01:14;;;;;;;6.38;3.28;;;;;;;;;;5091552;28;20020;-60
2023/05/05 12:03:39;;;;;;;5.50;3.10;;;;;;;;;;5091288;28;20074;-60
2023/05/05 12:06:06;;;;;;;5.15;2.72;;;;;;;;;;5086088;28;20425;-61
2023/05/05 12:08:37;;;;;;;5.43;3.38;;;;;;;;;;5090785;28;20434;-61
2023/05/05 12:11:06;;;;;;;5.53;3.45;;;;;;;;;;5087130;28;20482;-61
2023/05/05 12:13:32;;;;;;;5.82;2.58;;;;;;;;;;5084583;28;20111;-60
2023/05/05 12:16:13;;;;;;;5.32;2.22;;;;;;;;;;5090194;28;20032;-61
2023/05/05 12:18:39;;;;;;;5.38;3.00;;;;;;;;;;5086993;28;20111;-61
2023/05/05 12:21:31;;;;;;;8.57;2.53;;;;;;;;;;5090892;28;20103;-60
2023/05/05 12:23:56;;;;;;;3.33;1.83;;;;;;;;;;5086033;28;20043;-61
2023/05/05 12:26:25;;;;;;;5.57;2.38;;;;;;;;;;5090708;28;20433;-60
2023/05/05 12:28:50;;;;;;;10.00;2.55;;;;;;;;;;5090494;28;20043;-61
2023/05/05 12:31:16;;;;;;;4.68;2.45;;;;;;;;;;5090238;28;20543;-61
2023/05/05 12:33:41;;;;;;;3.85;1.58;;;;;;;;;;5090256;28;20466;-61
2023/05/05 12:36:07;;;;;;;7.95;2.25;;;;;;;;;;5090359;28;20057;-61
2023/05/05 12:38:33;;;;;;;8.23;2.42;;;;;;;;;;5090368;28;20024;-61
2023/05/05 12:40:59;;;;;;;5.72;1.58;;;;;;;;;;5090640;28;20024;-61
2023/05/05 12:43:25;;;;;;;4.60;1.70;;;;;;;;;;5090491;28;20024;-61
2023/05/05 12:46:13;;;;;;;5.78;1.60;;;;;;;;;;5089872;28;20040;-61
2023/05/05 12:48:40;;;;;;;4.57;1.45;;;;;;;;;;5078448;28;20457;-61
2023/05/05 12:51:12;;;;;;;6.40;1.73;;;;;;;;;;5090032;28;20024;-61
2023/05/05 12:53:37;;;;;;;5.80;1.80;;;;;;;;;;5085299;28;20020;-61
2023/05/05 12:56:03;;;;;;;7.32;1.27;;;;;;;;;;5084703;28;20032;-60
2023/05/05 12:58:44;;;;;;;4.97;1.70;;;;;;;;;;5089462;28;20020;-60
2023/05/05 13:01:10;;;;;;;5.97;1.55;;;;;;;;;;5091187;28;20028;-61
2023/05/05 13:03:35;;;;;;;8.13;1.75;;;;;;;;;;5087319;28;20089;-60
2023/05/05 13:06:00;;;;;;;5.35;1.85;;;;;;;;;;5086058;28;20107;-70
2023/05/05 13:08:46;;;;;;;5.88;1.77;;;;;;;;;;5091044;28;20024;-62
2023/05/05 13:11:11;;;;;;;4.63;1.48;;;;;;;;;;5090055;28;20032;-60
2023/05/05 13:13:36;;;;;;;7.90;1.53;;;;;;;;;;5084211;28;20463;-61
2023/05/05 13:16:02;;;;;;;4.15;1.50;;;;;;;;;;5091336;28;20262;-60
2023/05/05 13:18:27;;;;;;;6.63;1.77;;;;;;;;;;5089698;28;20038;-60
2023/05/05 13:20:52;;;;;;;4.03;1.48;;;;;;;;;;5090817;28;20110;-60
2023/05/05 13:23:18;;;;;;;15.47;1.93;;;;;;;;;;5082046;28;20451;-61
2023/05/05 13:25:44;;;;;;;3.60;1.65;;;;;;;;;;5091040;28;20274;-61
2023/05/05 13:28:09;;;;;;;2.47;1.20;;;;;;;;;;5076915;28;20094;-61
2023/05/05 13:30:34;;;;;;;3.05;1.42;;;;;;;;;;5037079;28;20853;-61
2023/05/05 13:33:00;;;;;;;4.70;1.58;;;;;;;;;;5047202;28;20039;-61
2023/05/05 13:35:26;;;;;;;4.20;1.50;;;;;;;;;;5057280;28;20028;-59
2023/05/05 13:37:51;;;;;;;7.17;1.57;;;;;;;;;;5060964;28;20028;-60
2023/05/05 13:40:16;;;;;;;3.10;1.25;;;;;;;;;;5054470;28;21149;-59
2023/05/05 13:42:42;;;;;;;8.43;1.35;;;;;;;;;;5089173;28;20112;-61
2023/05/05 13:45:07;;;;;;;4.28;1.33;;;;;;;;;;5092999;28;20027;-59
2023/05/05 13:47:32;;;;;;;3.65;1.30;;;;;;;;;;5092794;28;20023;-60
2023/05/05 13:49:58;;;;;;;4.47;1.60;;;;;;;;;;5092766;28;20447;-60
2023/05/05 13:52:23;;;;;;;4.30;1.00;;;;;;;;;;5092942;28;20584;-58
2023/05/05 13:54:48;;;;;;;4.00;1.37;;;;;;;;;;5093999;28;20278;-60
2023/05/05 13:57:13;;;;;;;3.85;1.42;;;;;;;;;;5093546;28;20262;-61
2023/05/05 13:59:39;;;;;;;3.58;1.13;;;;;;;;;;5092634;28;20466;-62
2023/05/05 14:02:04;;;;;;;3.97;1.13;;;;;;;;;;5092979;28;20106;-61
2023/05/05 14:04:29;;;;;;;3.83;1.20;;;;;;;;;;5089560;28;20509;-61
2023/05/05 14:06:57;;;;;;;3.27;1.13;;;;;;;;;;5093196;28;20028;-61
2023/05/05 14:09:22;;;;;;;2.97;1.45;;;;;;;;;;5092300;28;20308;-61
2023/05/05 14:11:47;;;;;;;3.22;1.27;;;;;;;;;;5093238;28;20099;-62
2023/05/05 14:14:12;;;;;;;3.67;1.20;;;;;;;;;;5092554;28;20359;-69
2023/05/05 14:16:37;;;;;;;3.50;1.20;;;;;;;;;;5092476;28;20278;-62
2023/05/05 14:19:03;;;;;;;2.53;1.05;;;;;;;;;;5092741;28;20286;-62
2023/05/05 14:21:28;;;;;;;4.78;1.20;;;;;;;;;;5092371;28;20497;-63
2023/05/05 14:23:53;;;;;;;3.87;0.90;;;;;;;;;;5087822;28;20039;-63
2023/05/05 14:26:19;;;;;;;5.68;1.25;;;;;;;;;;5086533;28;20353;-62
2023/05/05 14:28:44;;;;;;;5.60;1.73;;;;;;;;;;5092935;28;20028;-62
2023/05/05 14:31:10;;;;;;;2.55;1.00;;;;;;;;;;5092746;28;20282;-62
2023/05/05 14:33:35;;;;;;;2.33;0.90;;;;;;;;;;5093140;28;20382;-62